sensor_id;sensor_type;location;lat;lon;timestamp;temperature;humidity
16172;DHT22;8192;53.596;10.166;2023-04-01T00:02:26;9.30;99.90
16172;DHT22;8192;53.596;10.166;2023-04-01T00:04:55;9.20;99.90
16172;DHT22;8192;53.596;10.166;2023-04-01T00:07:22;9.20;99.90
16172;DHT22;8192;53.596;10.166;2023-04-01T00:09:49;9.20;99.90
16172;DHT22;8192;53.596;10.166;2023-04-01T00:12:16;9.10;99.90
16172;DHT22;8192;53.596;10.166;2023-04-01T00:14:43;9.20;99.90
16172;DHT22;8192;53.596;10.166;2023-04-01T00:17:10;9.20;99.90
16172;DHT22;8192;53.596;10.166;2023-04-01T00:19:37;9.20;99.90
16172;DHT22;8192;53.596;10.166;2023-04-01T00:22:06;9.20;99.90
16172;DHT22;8192;53.596;10.166;2023-04-01T00:24:37;9.20;99.90
16172;DHT22;8192;53.596;10.166;2023-04-01T00:27:04;9.30;99.90
16172;DHT22;8192;53.596;10.166;2023-04-01T00:29:31;9.10;99.90
16172;DHT22;8192;53.596;10.166;2023-04-01T00:31:58;9.20;99.90
16172;DHT22;8192;53.596;10.166;2023-04-01T00:34:26;9.10;99.90
16172;DHT22;8192;53.596;10.166;2023-04-01T00:36:53;9.20;99.90
16172;DHT22;8192;53.596;10.166;2023-04-01T00:39:22;9.10;99.90
16172;DHT22;8192;53.596;10.166;2023-04-01T00:41:48;9.20;99.90
16172;DHT22;8192;53.596;10.166;2023-04-01T00:44:18;9.10;99.90
16172;DHT22;8192;53.596;10.166;2023-04-01T00:46:46;9.10;99.90
16172;DHT22;8192;53.596;10.166;2023-04-01T00:49:14;9.10;99.90
16172;DHT22;8192;53.596;10.166;2023-04-01T00:51:43;9.10;99.90
16172;DHT22;8192;53.596;10.166;2023-04-01T00:54:12;9.10;99.90
16172;DHT22;8192;53.596;10.166;2023-04-01T00:56:45;9.10;99.90
16172;DHT22;8192;53.596;10.166;2023-04-01T00:59:18;9.00;99.90
16172;DHT22;8192;53.596;10.166;2023-04-01T01:01:48;9.00;99.90
16172;DHT22;8192;53.596;10.166;2023-04-01T01:04:23;9.00;99.90
16172;DHT22;8192;53.596;10.166;2023-04-01T01:06:56;9.00;99.90
16172;DHT22;8192;53.596;10.166;2023-04-01T01:09:41;9.00;99.90
16172;DHT22;8192;53.596;10.166;2023-04-01T01:12:14;9.00;99.90
16172;DHT22;8192;53.596;10.166;2023-04-01T01:14:51;8.90;99.90
16172;DHT22;8192;53.596;10.166;2023-04-01T01:17:26;9.00;99.90
16172;DHT22;8192;53.596;10.166;2023-04-01T01:23:37;8.90;99.90
16172;DHT22;8192;53.596;10.166;2023-04-01T01:26:28;8.90;99.90
16172;DHT22;8192;53.596;10.166;2023-04-01T01:29:09;8.90;99.90
16172;DHT22;8192;53.596;10.166;2023-04-01T01:31:47;8.90;99.90
16172;DHT22;8192;53.596;10.166;2023-04-01T01:34:22;8.90;99.90
16172;DHT22;8192;53.596;10.166;2023-04-01T01:36:57;8.90;99.90
16172;DHT22;8192;53.596;10.166;2023-04-01T01:39:27;8.80;99.90
16172;DHT22;8192;53.596;10.166;2023-04-01T01:41:58;8.80;99.90
16172;DHT22;8192;53.596;10.166;2023-04-01T01:44:28;8.80;99.90
16172;DHT22;8192;53.596;10.166;2023-04-01T01:46:57;8.80;99.90
16172;DHT22;8192;53.596;10.166;2023-04-01T01:49:25;8.80;99.90
16172;DHT22;8192;53.596;10.166;2023-04-01T01:52:06;8.80;99.90
16172;DHT22;8192;53.596;10.166;2023-04-01T01:54:33;8.80;99.90
16172;DHT22;8192;53.596;10.166;2023-04-01T01:57:04;8.80;99.90
16172;DHT22;8192;53.596;10.166;2023-04-01T01:59:33;8.80;99.90
16172;DHT22;8192;53.596;10.166;2023-04-01T02:02:02;8.80;99.90
16172;DHT22;8192;53.596;10.166;2023-04-01T02:04:34;8.80;99.90
16172;DHT22;8192;53.596;10.166;2023-04-01T02:07:03;8.80;99.90
16172;DHT22;8192;53.596;10.166;2023-04-01T02:09:33;8.80;99.90
16172;DHT22;8192;53.596;10.166;2023-04-01T02:12:03;8.80;99.90
16172;DHT22;8192;53.596;10.166;2023-04-01T02:14:37;8.80;99.90
16172;DHT22;8192;53.596;10.166;2023-04-01T02:17:08;8.80;99.90
16172;DHT22;8192;53.596;10.166;2023-04-01T02:19:39;8.80;99.90
16172;DHT22;8192;53.596;10.166;2023-04-01T02:22:10;8.80;99.90
16172;DHT22;8192;53.596;10.166;2023-04-01T02:24:40;8.70;99.90
16172;DHT22;8192;53.596;10.166;2023-04-01T02:27:09;8.80;99.90
16172;DHT22;8192;53.596;10.166;2023-04-01T02:29:37;8.80;99.90
16172;DHT22;8192;53.596;10.166;2023-04-01T02:32:06;8.80;99.90
16172;DHT22;8192;53.596;10.166;2023-04-01T02:34:33;8.70;99.90
16172;DHT22;8192;53.596;10.166;2023-04-01T02:37:00;8.70;99.90
16172;DHT22;8192;53.596;10.166;2023-04-01T02:39:28;8.70;99.90
16172;DHT22;8192;53.596;10.166;2023-04-01T02:41:56;8.70;99.90
16172;DHT22;8192;53.596;10.166;2023-04-01T02:44:23;8.70;99.90
16172;DHT22;8192;53.596;10.166;2023-04-01T02:46:50;8.80;99.90
16172;DHT22;8192;53.596;10.166;2023-04-01T02:49:18;8.70;99.90
16172;DHT22;8192;53.596;10.166;2023-04-01T02:51:45;8.70;99.90
16172;DHT22;8192;53.596;10.166;2023-04-01T02:54:12;8.90;99.90
16172;DHT22;8192;53.596;10.166;2023-04-01T02:56:39;8.70;99.90
16172;DHT22;8192;53.596;10.166;2023-04-01T02:59:07;8.80;99.90
16172;DHT22;8192;53.596;10.166;2023-04-01T03:01:34;8.80;99.90
16172;DHT22;8192;53.596;10.166;2023-04-01T03:04:02;8.80;99.90
16172;DHT22;8192;53.596;10.166;2023-04-01T03:06:29;8.80;99.90
16172;DHT22;8192;53.596;10.166;2023-04-01T03:08:56;8.70;99.90
16172;DHT22;8192;53.596;10.166;2023-04-01T03:11:23;8.80;99.90
16172;DHT22;8192;53.596;10.166;2023-04-01T03:13:51;8.80;99.90
16172;DHT22;8192;53.596;10.166;2023-04-01T03:16:19;8.80;99.90
16172;DHT22;8192;53.596;10.166;2023-04-01T03:18:48;8.80;99.90
16172;DHT22;8192;53.596;10.166;2023-04-01T03:21:32;8.80;99.90
16172;DHT22;8192;53.596;10.166;2023-04-01T03:23:59;8.70;99.90
16172;DHT22;8192;53.596;10.166;2023-04-01T03:26:26;8.70;99.90
16172;DHT22;8192;53.596;10.166;2023-04-01T03:28:53;8.80;99.90
16172;DHT22;8192;53.596;10.166;2023-04-01T03:31:22;8.70;99.90
16172;DHT22;8192;53.596;10.166;2023-04-01T03:33:49;8.90;99.90
16172;DHT22;8192;53.596;10.166;2023-04-01T03:36:16;8.70;99.90
16172;DHT22;8192;53.596;10.166;2023-04-01T03:38:44;8.70;99.90
16172;DHT22;8192;53.596;10.166;2023-04-01T03:41:12;8.70;99.90
16172;DHT22;8192;53.596;10.166;2023-04-01T03:43:39;8.70;99.90
16172;DHT22;8192;53.596;10.166;2023-04-01T03:46:06;8.80;99.90
16172;DHT22;8192;53.596;10.166;2023-04-01T03:48:34;8.70;99.90
16172;DHT22;8192;53.596;10.166;2023-04-01T03:51:01;8.70;99.90
16172;DHT22;8192;53.596;10.166;2023-04-01T03:53:29;8.70;99.90
16172;DHT22;8192;53.596;10.166;2023-04-01T03:55:56;8.80;99.90
16172;DHT22;8192;53.596;10.166;2023-04-01T03:58:23;8.70;99.90
16172;DHT22;8192;53.596;10.166;2023-04-01T04:00:50;8.90;99.90
16172;DHT22;8192;53.596;10.166;2023-04-01T04:03:18;8.70;99.90
16172;DHT22;8192;53.596;10.166;2023-04-01T04:05:50;8.70;99.90
16172;DHT22;8192;53.596;10.166;2023-04-01T04:08:17;8.70;99.90
16172;DHT22;8192;53.596;10.166;2023-04-01T04:10:44;8.80;99.90
16172;DHT22;8192;53.596;10.166;2023-04-01T04:13:11;8.70;99.90
16172;DHT22;8192;53.596;10.166;2023-04-01T04:15:38;8.70;99.90
16172;DHT22;8192;53.596;10.166;2023-04-01T04:18:05;8.70;99.90
16172;DHT22;8192;53.596;10.166;2023-04-01T04:20:32;8.70;99.90
16172;DHT22;8192;53.596;10.166;2023-04-01T04:23:01;8.60;99.90
16172;DHT22;8192;53.596;10.166;2023-04-01T04:25:29;8.70;99.90
16172;DHT22;8192;53.596;10.166;2023-04-01T04:27:56;8.70;99.90
16172;DHT22;8192;53.596;10.166;2023-04-01T04:30:23;8.70;99.90
16172;DHT22;8192;53.596;10.166;2023-04-01T04:32:50;8.70;99.90
16172;DHT22;8192;53.596;10.166;2023-04-01T04:35:17;8.70;99.90
16172;DHT22;8192;53.596;10.166;2023-04-01T04:37:44;8.70;99.90
16172;DHT22;8192;53.596;10.166;2023-04-01T04:40:12;8.70;99.90
16172;DHT22;8192;53.596;10.166;2023-04-01T04:42:40;8.70;99.90
16172;DHT22;8192;53.596;10.166;2023-04-01T04:45:07;8.70;99.90
16172;DHT22;8192;53.596;10.166;2023-04-01T04:47:34;8.70;99.90
16172;DHT22;8192;53.596;10.166;2023-04-01T04:50:01;8.80;99.90
16172;DHT22;8192;53.596;10.166;2023-04-01T04:52:28;8.70;99.90
16172;DHT22;8192;53.596;10.166;2023-04-01T04:54:55;8.70;99.90
16172;DHT22;8192;53.596;10.166;2023-04-01T04:57:23;8.70;99.90
16172;DHT22;8192;53.596;10.166;2023-04-01T04:59:52;8.70;99.90
16172;DHT22;8192;53.596;10.166;2023-04-01T05:02:23;8.70;99.90
16172;DHT22;8192;53.596;10.166;2023-04-01T05:04:51;8.70;99.90
16172;DHT22;8192;53.596;10.166;2023-04-01T05:07:19;8.70;99.90
16172;DHT22;8192;53.596;10.166;2023-04-01T05:09:46;8.60;99.90
16172;DHT22;8192;53.596;10.166;2023-04-01T05:12:13;8.30;99.90
16172;DHT22;8192;53.596;10.166;2023-04-01T05:14:42;8.10;99.90
16172;DHT22;8192;53.596;10.166;2023-04-01T05:17:09;8.30;99.90
16172;DHT22;8192;53.596;10.166;2023-04-01T05:19:36;7.80;99.90
16172;DHT22;8192;53.596;10.166;2023-04-01T05:22:03;7.60;99.90
16172;DHT22;8192;53.596;10.166;2023-04-01T05:24:30;7.50;99.90
16172;DHT22;8192;53.596;10.166;2023-04-01T05:26:57;7.40;99.90
16172;DHT22;8192;53.596;10.166;2023-04-01T05:29:25;7.40;99.90
16172;DHT22;8192;53.596;10.166;2023-04-01T05:31:53;7.30;99.90
16172;DHT22;8192;53.596;10.166;2023-04-01T05:34:20;7.60;99.90
16172;DHT22;8192;53.596;10.166;2023-04-01T05:36:47;7.20;99.90
16172;DHT22;8192;53.596;10.166;2023-04-01T05:39:14;7.10;99.90
16172;DHT22;8192;53.596;10.166;2023-04-01T05:41:42;7.00;99.90
16172;DHT22;8192;53.596;10.166;2023-04-01T05:44:13;7.00;99.90
16172;DHT22;8192;53.596;10.166;2023-04-01T05:46:41;7.00;99.90
16172;DHT22;8192;53.596;10.166;2023-04-01T05:49:11;7.00;99.90
16172;DHT22;8192;53.596;10.166;2023-04-01T05:54:51;6.80;99.90
16172;DHT22;8192;53.596;10.166;2023-04-01T05:57:18;6.80;99.90
16172;DHT22;8192;53.596;10.166;2023-04-01T05:59:52;6.70;99.90
16172;DHT22;8192;53.596;10.166;2023-04-01T06:02:38;6.70;99.90
16172;DHT22;8192;53.596;10.166;2023-04-01T06:08:26;6.70;99.90
16172;DHT22;8192;53.596;10.166;2023-04-01T06:14:17;6.60;99.90
16172;DHT22;8192;53.596;10.166;2023-04-01T06:16:58;6.50;99.90
16172;DHT22;8192;53.596;10.166;2023-04-01T06:23:01;6.40;99.90
16172;DHT22;8192;53.596;10.166;2023-04-01T06:25:59;6.40;99.90
16172;DHT22;8192;53.596;10.166;2023-04-01T06:32:09;6.40;99.90
16172;DHT22;8192;53.596;10.166;2023-04-01T06:35:25;6.40;99.90
16172;DHT22;8192;53.596;10.166;2023-04-01T06:47:34;6.20;99.90
16172;DHT22;8192;53.596;10.166;2023-04-01T06:50:07;6.10;99.90
16172;DHT22;8192;53.596;10.166;2023-04-01T06:52:47;6.10;99.90
16172;DHT22;8192;53.596;10.166;2023-04-01T06:55:42;6.10;99.90
16172;DHT22;8192;53.596;10.166;2023-04-01T06:58:16;5.90;99.90
16172;DHT22;8192;53.596;10.166;2023-04-01T07:04:37;5.90;99.90
16172;DHT22;8192;53.596;10.166;2023-04-01T07:07:16;5.90;99.90
16172;DHT22;8192;53.596;10.166;2023-04-01T07:12:44;6.00;99.90
16172;DHT22;8192;53.596;10.166;2023-04-01T07:15:18;5.90;99.90
16172;DHT22;8192;53.596;10.166;2023-04-01T07:17:56;5.90;99.90
16172;DHT22;8192;53.596;10.166;2023-04-01T07:20:47;5.90;99.90
16172;DHT22;8192;53.596;10.166;2023-04-01T07:23:36;5.90;99.90
16172;DHT22;8192;53.596;10.166;2023-04-01T07:26:20;5.90;99.90
16172;DHT22;8192;53.596;10.166;2023-04-01T07:28:48;6.10;99.90
16172;DHT22;8192;53.596;10.166;2023-04-01T07:38:22;6.00;99.90
16172;DHT22;8192;53.596;10.166;2023-04-01T07:44:25;6.00;99.90
16172;DHT22;8192;53.596;10.166;2023-04-01T07:47:29;6.10;99.90
16172;DHT22;8192;53.596;10.166;2023-04-01T07:50:47;6.00;99.90
16172;DHT22;8192;53.596;10.166;2023-04-01T07:53:26;6.00;99.90
16172;DHT22;8192;53.596;10.166;2023-04-01T07:56:25;6.00;99.90
16172;DHT22;8192;53.596;10.166;2023-04-01T08:02:29;5.90;99.90
16172;DHT22;8192;53.596;10.166;2023-04-01T08:05:14;6.00;99.90
16172;DHT22;8192;53.596;10.166;2023-04-01T08:07:51;5.90;99.90
16172;DHT22;8192;53.596;10.166;2023-04-01T08:10:29;5.90;99.90
16172;DHT22;8192;53.596;10.166;2023-04-01T08:13:05;6.10;99.90
16172;DHT22;8192;53.596;10.166;2023-04-01T08:15:55;5.90;99.90
16172;DHT22;8192;53.596;10.166;2023-04-01T08:18:45;6.00;99.90
16172;DHT22;8192;53.596;10.166;2023-04-01T08:25:03;6.00;99.90
16172;DHT22;8192;53.596;10.166;2023-04-01T08:28:19;6.10;99.90
16172;DHT22;8192;53.596;10.166;2023-04-01T08:30:53;6.20;99.90
16172;DHT22;8192;53.596;10.166;2023-04-01T08:33:27;6.10;99.90
16172;DHT22;8192;53.596;10.166;2023-04-01T08:35:57;6.60;99.90
16172;DHT22;8192;53.596;10.166;2023-04-01T08:38:46;6.10;99.90
16172;DHT22;8192;53.596;10.166;2023-04-01T08:48:12;6.30;99.90
16172;DHT22;8192;53.596;10.166;2023-04-01T08:51:12;6.20;99.90
16172;DHT22;8192;53.596;10.166;2023-04-01T08:53:55;6.20;99.90
16172;DHT22;8192;53.596;10.166;2023-04-01T08:56:29;6.30;99.90
16172;DHT22;8192;53.596;10.166;2023-04-01T08:59:16;6.10;99.90
16172;DHT22;8192;53.596;10.166;2023-04-01T09:07:50;6.20;99.90
16172;DHT22;8192;53.596;10.166;2023-04-01T09:10:57;6.20;99.90
16172;DHT22;8192;53.596;10.166;2023-04-01T09:14:05;6.30;99.90
16172;DHT22;8192;53.596;10.166;2023-04-01T09:20:19;6.20;99.90
16172;DHT22;8192;53.596;10.166;2023-04-01T09:23:10;6.10;99.90
16172;DHT22;8192;53.596;10.166;2023-04-01T09:25:52;6.10;99.90
16172;DHT22;8192;53.596;10.166;2023-04-01T09:28:34;6.10;99.90
16172;DHT22;8192;53.596;10.166;2023-04-01T09:31:43;6.70;99.90
16172;DHT22;8192;53.596;10.166;2023-04-01T09:34:34;6.10;99.90
16172;DHT22;8192;53.596;10.166;2023-04-01T09:37:21;6.10;99.90
16172;DHT22;8192;53.596;10.166;2023-04-01T09:43:23;6.20;99.90
16172;DHT22;8192;53.596;10.166;2023-04-01T09:46:04;6.20;99.90
16172;DHT22;8192;53.596;10.166;2023-04-01T09:48:51;6.30;99.90
16172;DHT22;8192;53.596;10.166;2023-04-01T09:51:40;6.60;99.90
16172;DHT22;8192;53.596;10.166;2023-04-01T09:54:27;6.60;99.90
16172;DHT22;8192;53.596;10.166;2023-04-01T10:00:39;6.40;99.90
16172;DHT22;8192;53.596;10.166;2023-04-01T10:06:51;6.30;99.90
16172;DHT22;8192;53.596;10.166;2023-04-01T10:10:00;6.30;99.90
16172;DHT22;8192;53.596;10.166;2023-04-01T10:16:00;6.30;99.90
16172;DHT22;8192;53.596;10.166;2023-04-01T10:18:50;6.50;99.90
16172;DHT22;8192;53.596;10.166;2023-04-01T10:31:49;6.70;99.90
16172;DHT22;8192;53.596;10.166;2023-04-01T10:41:04;6.50;99.90
16172;DHT22;8192;53.596;10.166;2023-04-01T10:43:58;6.40;99.90
16172;DHT22;8192;53.596;10.166;2023-04-01T10:47:13;6.50;99.90
16172;DHT22;8192;53.596;10.166;2023-04-01T10:53:37;6.60;99.90
16172;DHT22;8192;53.596;10.166;2023-04-01T10:56:34;6.90;99.90
16172;DHT22;8192;53.596;10.166;2023-04-01T11:21:51;6.70;99.90
16172;DHT22;8192;53.596;10.166;2023-04-01T11:24:59;6.70;99.90
16172;DHT22;8192;53.596;10.166;2023-04-01T11:28:35;6.50;99.90
16172;DHT22;8192;53.596;10.166;2023-04-01T11:31:28;6.70;99.90
16172;DHT22;8192;53.596;10.166;2023-04-01T11:34:02;6.70;99.90
16172;DHT22;8192;53.596;10.166;2023-04-01T11:36:45;6.60;99.90
16172;DHT22;8192;53.596;10.166;2023-04-01T11:49:01;6.10;99.90
16172;DHT22;8192;53.596;10.166;2023-04-01T11:52:00;6.10;99.90
16172;DHT22;8192;53.596;10.166;2023-04-01T11:57:51;6.20;99.90
16172;DHT22;8192;53.596;10.166;2023-04-01T12:00:41;6.50;99.90
16172;DHT22;8192;53.596;10.166;2023-04-01T12:03:27;6.20;99.90
16172;DHT22;8192;53.596;10.166;2023-04-01T12:06:05;6.20;99.90
16172;DHT22;8192;53.596;10.166;2023-04-01T12:08:44;6.10;99.90
16172;DHT22;8192;53.596;10.166;2023-04-01T12:11:17;6.10;99.90
16172;DHT22;8192;53.596;10.166;2023-04-01T12:13:53;6.20;99.90
16172;DHT22;8192;53.596;10.166;2023-04-01T12:16:40;6.20;99.90
16172;DHT22;8192;53.596;10.166;2023-04-01T12:19:16;6.20;99.90
16172;DHT22;8192;53.596;10.166;2023-04-01T12:21:55;6.10;99.90
16172;DHT22;8192;53.596;10.166;2023-04-01T12:24:44;5.90;99.90
16172;DHT22;8192;53.596;10.166;2023-04-01T12:27:37;5.90;99.90
16172;DHT22;8192;53.596;10.166;2023-04-01T12:33:37;5.90;99.90
16172;DHT22;8192;53.596;10.166;2023-04-01T12:36:30;6.00;99.90
16172;DHT22;8192;53.596;10.166;2023-04-01T12:39:14;5.90;99.90
16172;DHT22;8192;53.596;10.166;2023-04-01T12:41:52;5.90;99.90
16172;DHT22;8192;53.596;10.166;2023-04-01T12:44:42;5.90;99.90
16172;DHT22;8192;53.596;10.166;2023-04-01T12:47:31;6.00;99.90
16172;DHT22;8192;53.596;10.166;2023-04-01T12:50:23;5.90;99.90
16172;DHT22;8192;53.596;10.166;2023-04-01T12:56:36;5.80;99.90
16172;DHT22;8192;53.596;10.166;2023-04-01T12:59:23;5.90;99.90
16172;DHT22;8192;53.596;10.166;2023-04-01T13:02:01;5.80;99.90
16172;DHT22;8192;53.596;10.166;2023-04-01T13:07:59;5.80;99.90
16172;DHT22;8192;53.596;10.166;2023-04-01T13:10:42;5.70;99.90
16172;DHT22;8192;53.596;10.166;2023-04-01T13:16:19;5.60;99.90
16172;DHT22;8192;53.596;10.166;2023-04-01T13:18:56;5.60;99.90
16172;DHT22;8192;53.596;10.166;2023-04-01T13:21:34;5.80;99.90
16172;DHT22;8192;53.596;10.166;2023-04-01T13:24:11;5.70;99.90
16172;DHT22;8192;53.596;10.166;2023-04-01T13:26:56;5.80;99.90
16172;DHT22;8192;53.596;10.166;2023-04-01T13:29:43;5.60;99.90
16172;DHT22;8192;53.596;10.166;2023-04-01T13:32:28;5.50;99.90
16172;DHT22;8192;53.596;10.166;2023-04-01T13:35:15;5.50;99.90
16172;DHT22;8192;53.596;10.166;2023-04-01T13:38:11;5.60;99.90
16172;DHT22;8192;53.596;10.166;2023-04-01T13:40:53;5.60;99.90
16172;DHT22;8192;53.596;10.166;2023-04-01T13:43:36;5.60;99.90
16172;DHT22;8192;53.596;10.166;2023-04-01T13:46:37;5.60;99.90
16172;DHT22;8192;53.596;10.166;2023-04-01T13:49:23;5.60;99.90
16172;DHT22;8192;53.596;10.166;2023-04-01T13:58:19;5.50;99.90
16172;DHT22;8192;53.596;10.166;2023-04-01T14:00:56;5.60;99.90
16172;DHT22;8192;53.596;10.166;2023-04-01T14:03:41;5.60;99.90
16172;DHT22;8192;53.596;10.166;2023-04-01T14:06:18;5.60;99.90
16172;DHT22;8192;53.596;10.166;2023-04-01T14:09:04;5.50;99.90
16172;DHT22;8192;53.596;10.166;2023-04-01T14:11:45;5.50;99.90
16172;DHT22;8192;53.596;10.166;2023-04-01T14:14:31;5.60;99.90
16172;DHT22;8192;53.596;10.166;2023-04-01T14:17:24;5.60;99.90
16172;DHT22;8192;53.596;10.166;2023-04-01T14:20:22;5.70;99.90
16172;DHT22;8192;53.596;10.166;2023-04-01T14:23:04;5.70;99.90
16172;DHT22;8192;53.596;10.166;2023-04-01T14:25:59;5.80;99.90
16172;DHT22;8192;53.596;10.166;2023-04-01T14:28:37;5.70;99.90
16172;DHT22;8192;53.596;10.166;2023-04-01T14:31:28;5.70;99.90
16172;DHT22;8192;53.596;10.166;2023-04-01T14:34:05;5.60;99.90
16172;DHT22;8192;53.596;10.166;2023-04-01T14:36:50;5.60;99.90
16172;DHT22;8192;53.596;10.166;2023-04-01T14:42:41;5.50;99.90
16172;DHT22;8192;53.596;10.166;2023-04-01T14:48:27;5.50;99.90
16172;DHT22;8192;53.596;10.166;2023-04-01T14:51:02;5.60;99.90
16172;DHT22;8192;53.596;10.166;2023-04-01T14:53:38;5.50;99.90
16172;DHT22;8192;53.596;10.166;2023-04-01T14:56:37;5.40;99.90
16172;DHT22;8192;53.596;10.166;2023-04-01T14:59:09;5.40;99.90
16172;DHT22;8192;53.596;10.166;2023-04-01T15:01:44;5.30;99.90
16172;DHT22;8192;53.596;10.166;2023-04-01T15:04:53;5.30;99.90
16172;DHT22;8192;53.596;10.166;2023-04-01T15:07:52;5.20;99.90
16172;DHT22;8192;53.596;10.166;2023-04-01T15:16:55;5.00;99.90
16172;DHT22;8192;53.596;10.166;2023-04-01T15:19:36;5.10;99.90
16172;DHT22;8192;53.596;10.166;2023-04-01T15:22:20;5.00;99.90
16172;DHT22;8192;53.596;10.166;2023-04-01T15:25:13;4.90;99.90
16172;DHT22;8192;53.596;10.166;2023-04-01T15:27:51;4.80;99.90
16172;DHT22;8192;53.596;10.166;2023-04-01T15:30:28;4.80;99.90
16172;DHT22;8192;53.596;10.166;2023-04-01T15:33:10;4.80;99.90
16172;DHT22;8192;53.596;10.166;2023-04-01T15:35:49;4.80;99.90
16172;DHT22;8192;53.596;10.166;2023-04-01T15:38:31;4.80;99.90
16172;DHT22;8192;53.596;10.166;2023-04-01T15:41:08;4.90;99.90
16172;DHT22;8192;53.596;10.166;2023-04-01T15:47:33;4.70;99.90
16172;DHT22;8192;53.596;10.166;2023-04-01T15:53:47;4.70;99.90
16172;DHT22;8192;53.596;10.166;2023-04-01T15:56:28;4.60;99.90
16172;DHT22;8192;53.596;10.166;2023-04-01T15:59:12;4.60;99.90
16172;DHT22;8192;53.596;10.166;2023-04-01T16:05:13;4.70;99.90
16172;DHT22;8192;53.596;10.166;2023-04-01T16:07:57;4.60;99.90
16172;DHT22;8192;53.596;10.166;2023-04-01T16:11:09;4.60;99.90
16172;DHT22;8192;53.596;10.166;2023-04-01T16:13:48;4.60;99.90
16172;DHT22;8192;53.596;10.166;2023-04-01T16:16:35;4.60;99.90
16172;DHT22;8192;53.596;10.166;2023-04-01T16:19:16;4.50;99.90
16172;DHT22;8192;53.596;10.166;2023-04-01T16:21:52;4.40;99.90
16172;DHT22;8192;53.596;10.166;2023-04-01T16:24:28;4.40;99.90
16172;DHT22;8192;53.596;10.166;2023-04-01T16:27:02;4.40;99.90
16172;DHT22;8192;53.596;10.166;2023-04-01T16:29:38;4.30;99.90
16172;DHT22;8192;53.596;10.166;2023-04-01T16:32:34;4.40;99.90
16172;DHT22;8192;53.596;10.166;2023-04-01T16:35:23;4.30;99.90
16172;DHT22;8192;53.596;10.166;2023-04-01T16:47:56;4.20;99.90
16172;DHT22;8192;53.596;10.166;2023-04-01T16:50:26;4.20;99.90
16172;DHT22;8192;53.596;10.166;2023-04-01T16:53:00;4.20;99.90
16172;DHT22;8192;53.596;10.166;2023-04-01T16:55:46;4.20;99.90
16172;DHT22;8192;53.596;10.166;2023-04-01T16:58:21;4.10;99.90
16172;DHT22;8192;53.596;10.166;2023-04-01T17:00:53;4.10;99.90
16172;DHT22;8192;53.596;10.166;2023-04-01T17:06:51;4.10;99.90
16172;DHT22;8192;53.596;10.166;2023-04-01T17:09:33;3.90;99.90
16172;DHT22;8192;53.596;10.166;2023-04-01T17:12:10;4.00;99.90
16172;DHT22;8192;53.596;10.166;2023-04-01T17:14:46;4.00;99.90
16172;DHT22;8192;53.596;10.166;2023-04-01T17:17:27;4.00;99.90
16172;DHT22;8192;53.596;10.166;2023-04-01T17:20:06;3.90;99.90
16172;DHT22;8192;53.596;10.166;2023-04-01T17:22:44;4.20;99.90
16172;DHT22;8192;53.596;10.166;2023-04-01T17:25:25;4.00;99.90
16172;DHT22;8192;53.596;10.166;2023-04-01T17:28:02;4.30;99.90
16172;DHT22;8192;53.596;10.166;2023-04-01T17:30:33;4.00;99.90
16172;DHT22;8192;53.596;10.166;2023-04-01T17:33:30;4.10;99.90
16172;DHT22;8192;53.596;10.166;2023-04-01T17:36:09;4.10;99.90
16172;DHT22;8192;53.596;10.166;2023-04-01T17:38:56;4.10;99.90
16172;DHT22;8192;53.596;10.166;2023-04-01T17:41:32;4.10;99.90
16172;DHT22;8192;53.596;10.166;2023-04-01T17:44:15;4.10;99.90
16172;DHT22;8192;53.596;10.166;2023-04-01T17:47:00;4.10;99.90
16172;DHT22;8192;53.596;10.166;2023-04-01T17:49:35;4.10;99.90
16172;DHT22;8192;53.596;10.166;2023-04-01T17:52:10;4.10;99.90
16172;DHT22;8192;53.596;10.166;2023-04-01T17:54:49;4.10;99.90
16172;DHT22;8192;53.596;10.166;2023-04-01T17:57:34;4.10;99.90
16172;DHT22;8192;53.596;10.166;2023-04-01T18:00:18;4.10;99.90
16172;DHT22;8192;53.596;10.166;2023-04-01T18:09:17;4.00;99.90
16172;DHT22;8192;53.596;10.166;2023-04-01T18:11:57;4.00;99.90
16172;DHT22;8192;53.596;10.166;2023-04-01T18:17:58;3.90;99.90
16172;DHT22;8192;53.596;10.166;2023-04-01T18:20:37;3.90;99.90
16172;DHT22;8192;53.596;10.166;2023-04-01T18:23:14;3.80;99.90
16172;DHT22;8192;53.596;10.166;2023-04-01T18:25:48;3.80;99.90
16172;DHT22;8192;53.596;10.166;2023-04-01T18:28:25;3.80;99.90
16172;DHT22;8192;53.596;10.166;2023-04-01T18:30:56;3.80;99.90
16172;DHT22;8192;53.596;10.166;2023-04-01T18:33:34;3.90;99.90
16172;DHT22;8192;53.596;10.166;2023-04-01T18:36:13;3.80;99.90
16172;DHT22;8192;53.596;10.166;2023-04-01T18:38:48;3.70;99.90
16172;DHT22;8192;53.596;10.166;2023-04-01T18:41:25;3.70;99.90
16172;DHT22;8192;53.596;10.166;2023-04-01T18:44:07;3.70;99.90
16172;DHT22;8192;53.596;10.166;2023-04-01T18:46:45;3.70;99.90
16172;DHT22;8192;53.596;10.166;2023-04-01T18:49:19;3.70;99.90
16172;DHT22;8192;53.596;10.166;2023-04-01T18:51:50;3.70;99.90
16172;DHT22;8192;53.596;10.166;2023-04-01T18:54:23;4.20;99.90
16172;DHT22;8192;53.596;10.166;2023-04-01T18:57:01;3.60;99.90
16172;DHT22;8192;53.596;10.166;2023-04-01T18:59:34;3.60;99.90
16172;DHT22;8192;53.596;10.166;2023-04-01T19:02:07;3.60;99.90
16172;DHT22;8192;53.596;10.166;2023-04-01T19:04:39;3.70;99.90
16172;DHT22;8192;53.596;10.166;2023-04-01T19:07:33;3.50;99.90
16172;DHT22;8192;53.596;10.166;2023-04-01T19:10:14;3.40;99.90
16172;DHT22;8192;53.596;10.166;2023-04-01T19:12:47;3.50;99.90
16172;DHT22;8192;53.596;10.166;2023-04-01T19:15:39;3.50;99.90
16172;DHT22;8192;53.596;10.166;2023-04-01T19:18:50;3.50;99.90
16172;DHT22;8192;53.596;10.166;2023-04-01T19:21:26;3.60;99.90
16172;DHT22;8192;53.596;10.166;2023-04-01T19:24:25;3.60;99.90
16172;DHT22;8192;53.596;10.166;2023-04-01T19:27:06;3.60;99.90
16172;DHT22;8192;53.596;10.166;2023-04-01T19:29:47;3.60;99.90
16172;DHT22;8192;53.596;10.166;2023-04-01T19:32:27;3.60;99.90
16172;DHT22;8192;53.596;10.166;2023-04-01T19:35:09;3.50;99.90
16172;DHT22;8192;53.596;10.166;2023-04-01T19:37:40;3.50;99.90
16172;DHT22;8192;53.596;10.166;2023-04-01T19:40:20;3.40;99.90
16172;DHT22;8192;53.596;10.166;2023-04-01T19:43:01;3.40;99.90
16172;DHT22;8192;53.596;10.166;2023-04-01T19:45:35;3.40;99.90
16172;DHT22;8192;53.596;10.166;2023-04-01T19:48:18;3.30;99.90
16172;DHT22;8192;53.596;10.166;2023-04-01T19:50:57;3.30;99.90
16172;DHT22;8192;53.596;10.166;2023-04-01T19:53:30;3.90;99.90
16172;DHT22;8192;53.596;10.166;2023-04-01T19:56:01;3.20;99.90
16172;DHT22;8192;53.596;10.166;2023-04-01T19:58:34;3.10;99.90
16172;DHT22;8192;53.596;10.166;2023-04-01T20:01:06;3.10;99.90
16172;DHT22;8192;53.596;10.166;2023-04-01T20:03:40;2.90;99.90
16172;DHT22;8192;53.596;10.166;2023-04-01T20:06:22;2.90;99.90
16172;DHT22;8192;53.596;10.166;2023-04-01T20:09:00;2.90;99.90
16172;DHT22;8192;53.596;10.166;2023-04-01T20:11:43;2.70;99.90
16172;DHT22;8192;53.596;10.166;2023-04-01T20:14:18;2.70;99.90
16172;DHT22;8192;53.596;10.166;2023-04-01T20:16:59;2.60;99.90
16172;DHT22;8192;53.596;10.166;2023-04-01T20:19:35;2.60;99.90